createdAt,value
2023-02-23T00:01:35.069Z,5.27
2023-02-23T00:04:24.837Z,4.50
2023-02-23T00:07:12.897Z,3.41
2023-02-23T00:10:01.713Z,2.66
2023-02-23T00:12:49.657Z,2.11
2023-02-23T00:15:37.843Z,2.40
2023-02-23T00:18:30.203Z,3.77
2023-02-23T00:21:33.166Z,4.86
2023-02-23T00:24:22.245Z,5.12
2023-02-23T00:27:10.552Z,3.85
2023-02-23T00:29:58.499Z,2.82
2023-02-23T00:32:46.826Z,2.12
2023-02-23T00:35:34.749Z,1.98
2023-02-23T00:38:22.603Z,3.16
2023-02-23T00:41:17.033Z,4.18
2023-02-23T00:44:05.044Z,4.92
2023-02-23T00:46:53.308Z,4.75
2023-02-23T00:49:45.097Z,3.48
2023-02-23T00:52:33.302Z,2.49
2023-02-23T00:55:23.780Z,1.79
2023-02-23T00:58:14.120Z,1.94
2023-02-23T01:01:05.344Z,3.20
2023-02-23T01:03:53.575Z,4.28
2023-02-23T01:06:42.660Z,4.89
2023-02-23T01:09:30.259Z,4.05
2023-02-23T01:12:18.142Z,2.84
2023-02-23T01:15:08.593Z,1.97
2023-02-23T01:17:57.206Z,1.75
2023-02-23T01:20:47.231Z,2.89
2023-02-23T01:23:35.327Z,3.98
2023-02-23T01:26:36.649Z,4.71
2023-02-23T01:29:24.651Z,4.67
2023-02-23T01:32:12.717Z,3.41
2023-02-23T01:35:04.556Z,2.35
2023-02-23T01:37:52.586Z,2.06
2023-02-23T01:40:43.639Z,3.16
2023-02-23T01:43:31.314Z,4.21
2023-02-23T01:46:19.257Z,4.81
2023-02-23T01:49:15.558Z,4.01
2023-02-23T01:52:11.163Z,2.68
2023-02-23T01:54:59.185Z,1.76
2023-02-23T01:57:47.125Z,1.70
2023-02-23T02:00:36.887Z,2.89
2023-02-23T02:03:56.937Z,3.91
2023-02-23T02:06:48.788Z,4.69
2023-02-23T02:09:39.241Z,4.62
2023-02-23T02:12:27.336Z,3.29
2023-02-23T02:15:18.245Z,2.16
2023-02-23T02:18:30.778Z,1.36
2023-02-23T02:21:56.869Z,1.74
2023-02-23T02:24:53.443Z,3.27
2023-02-23T02:28:22.363Z,3.82
2023-02-23T02:31:44.413Z,2.55
2023-02-23T02:35:19.103Z,1.44
2023-02-23T02:39:23.164Z,1.75
2023-02-23T02:42:40.376Z,3.34
2023-02-23T02:45:41.411Z,3.93
2023-02-23T02:49:06.476Z,2.82
2023-02-23T02:52:24.439Z,1.61
2023-02-23T02:55:29.382Z,0.93
2023-02-23T02:58:18.747Z,2.08
2023-02-23T03:01:35.093Z,3.32
2023-02-23T03:04:44.036Z,3.04
2023-02-23T03:08:03.766Z,1.81
2023-02-23T03:11:25.362Z,0.83
2023-02-23T03:14:53.874Z,0.73
2023-02-23T03:18:50.172Z,2.38
2023-02-23T03:22:15.361Z,2.56
2023-02-23T03:26:08.180Z,1.37
2023-02-23T03:29:20.980Z,0.43
2023-02-23T03:32:51.141Z,-0.09
2023-02-23T03:36:19.848Z,0.76
2023-02-23T03:39:49.950Z,2.49
2023-02-23T03:43:00.047Z,1.87
2023-02-23T03:46:08.719Z,0.84
2023-02-23T03:49:20.718Z,0.19
2023-02-23T03:52:39.893Z,-0.23
2023-02-23T03:55:52.696Z,1.09
2023-02-23T03:59:13.050Z,2.47
2023-02-23T04:02:21.311Z,1.43
2023-02-23T04:05:36.234Z,0.54
2023-02-23T04:08:54.918Z,-0.08
2023-02-23T04:12:24.712Z,-0.25
2023-02-23T04:15:36.655Z,1.39
2023-02-23T04:18:31.270Z,2.57
2023-02-23T04:21:19.298Z,2.15
2023-02-23T04:24:07.726Z,1.19
2023-02-23T04:26:55.767Z,0.49
2023-02-23T04:29:44.277Z,-0.03
2023-02-23T04:32:32.426Z,-0.40
2023-02-23T04:35:21.066Z,-0.68
2023-02-23T04:38:09.248Z,-0.46
2023-02-23T04:40:57.039Z,0.99
2023-02-23T04:43:44.672Z,2.25
2023-02-23T04:46:32.574Z,2.99
2023-02-23T04:49:20.551Z,0.82
2023-02-23T04:52:08.444Z,0.19
2023-02-23T04:54:56.557Z,-0.27
2023-02-23T04:57:44.776Z,-0.62
2023-02-23T05:00:34.164Z,-0.51
2023-02-23T05:03:22.159Z,1.10
2023-02-23T05:06:10.126Z,1.20
2023-02-23T05:08:58.371Z,0.38
2023-02-23T05:11:46.812Z,-0.22
2023-02-23T05:14:34.912Z,-0.62
2023-02-23T05:17:22.990Z,-0.07
2023-02-23T05:20:13.446Z,1.48
2023-02-23T05:23:01.332Z,1.66
2023-02-23T05:25:49.328Z,0.73
2023-02-23T05:28:40.617Z,0.06
2023-02-23T05:31:28.708Z,-0.43
2023-02-23T05:34:17.076Z,-0.76
2023-02-23T05:37:05.895Z,-0.34
2023-02-23T05:39:53.683Z,1.31
2023-02-23T05:42:41.909Z,1.60
2023-02-23T05:45:29.797Z,0.69
2023-02-23T05:48:18.118Z,-0.02
2023-02-23T05:51:10.659Z,-0.48
2023-02-23T05:53:58.825Z,-0.48
2023-02-23T05:56:46.666Z,0.82
2023-02-23T05:59:34.786Z,1.94
2023-02-23T06:02:22.620Z,1.34
2023-02-23T06:05:14.205Z,0.47
2023-02-23T06:08:01.923Z,-0.14
2023-02-23T06:10:50.277Z,-0.57
2023-02-23T06:13:38.180Z,-0.47
2023-02-23T06:16:27.997Z,0.91
2023-02-23T06:19:16.283Z,1.87
2023-02-23T06:22:03.949Z,1.17
2023-02-23T06:24:51.942Z,0.44
2023-02-23T06:27:42.202Z,-0.08
2023-02-23T06:30:32.075Z,-0.48
2023-02-23T06:33:20.789Z,-0.31
2023-02-23T06:36:10.406Z,1.12
2023-02-23T06:38:59.941Z,2.24
2023-02-23T06:41:47.841Z,1.83
2023-02-23T06:44:37.315Z,0.98
2023-02-23T06:47:25.146Z,0.34
2023-02-23T06:50:14.164Z,-0.04
2023-02-23T06:53:02.350Z,-0.05
2023-02-23T06:55:51.443Z,1.29
2023-02-23T06:58:40.326Z,2.37
2023-02-23T07:01:28.302Z,1.86
2023-02-23T07:04:17.016Z,1.12
2023-02-23T07:07:05.625Z,0.64
2023-02-23T07:09:53.641Z,0.32
2023-02-23T07:12:41.922Z,0.16
2023-02-23T07:15:29.912Z,1.06
2023-02-23T07:18:17.876Z,2.22
2023-02-23T07:21:06.482Z,1.76
2023-02-23T07:23:54.082Z,1.17
2023-02-23T07:26:46.868Z,0.82
2023-02-23T07:29:34.805Z,0.62
2023-02-23T07:32:23.112Z,0.78
2023-02-23T07:35:11.360Z,2.04
2023-02-23T07:37:59.376Z,2.73
2023-02-23T07:40:52.646Z,2.06
2023-02-23T07:43:41.397Z,1.38
2023-02-23T07:46:29.359Z,0.90
2023-02-23T07:49:17.489Z,0.52
2023-02-23T07:52:05.490Z,0.29
2023-02-23T07:54:54.331Z,0.36
2023-02-23T07:57:42.481Z,1.67
2023-02-23T08:00:30.692Z,2.25
2023-02-23T08:03:18.747Z,1.80
2023-02-23T08:06:07.464Z,1.45
2023-02-23T08:08:55.145Z,1.29
2023-02-23T08:11:43.970Z,1.22
2023-02-23T08:14:32.477Z,1.11
2023-02-23T08:17:20.525Z,1.06
2023-02-23T08:20:10.259Z,1.13
2023-02-23T08:22:59.641Z,1.58
2023-02-23T08:25:47.523Z,3.01
2023-02-23T08:28:35.818Z,3.19
2023-02-23T08:31:25.250Z,3.07
2023-02-23T08:34:14.411Z,2.98
2023-02-23T08:37:02.364Z,2.98
2023-02-23T08:39:50.615Z,3.04
2023-02-23T08:42:38.557Z,3.11
2023-02-23T08:45:29.375Z,3.16
2023-02-23T08:48:17.064Z,3.31
2023-02-23T08:51:05.552Z,3.53
2023-02-23T08:53:53.423Z,3.77
2023-02-23T08:56:42.325Z,3.96
2023-02-23T08:59:29.928Z,4.06
2023-02-23T09:02:18.202Z,4.18
2023-02-23T09:05:07.449Z,4.20
2023-02-23T09:07:55.673Z,4.35
2023-02-23T09:10:46.343Z,4.66
2023-02-23T09:13:34.588Z,5.02
2023-02-23T09:16:22.991Z,5.15
2023-02-23T09:19:11.204Z,5.45
2023-02-23T09:21:59.224Z,5.78
2023-02-23T09:24:47.777Z,6.02
2023-02-23T09:27:35.572Z,6.02
2023-02-23T09:30:24.210Z,6.02
2023-02-23T09:33:13.230Z,5.94
2023-02-23T09:36:16.380Z,5.81
2023-02-23T09:39:04.549Z,5.67
2023-02-23T09:42:18.499Z,5.63
2023-02-23T09:45:36.938Z,6.06
2023-02-23T09:48:29.894Z,6.70
2023-02-23T09:51:22.201Z,7.08
2023-02-23T09:54:16.547Z,7.11
2023-02-23T09:57:14.667Z,7.29
2023-02-23T10:00:05.873Z,7.55
2023-02-23T10:03:12.475Z,7.78
2023-02-23T10:06:09.084Z,8.15
2023-02-23T10:09:44.643Z,8.51
2023-02-23T10:12:48.635Z,8.72
2023-02-23T10:16:12.559Z,8.58
2023-02-23T10:19:20.083Z,8.40
2023-02-23T10:22:11.574Z,8.06
2023-02-23T10:25:10.033Z,7.85
2023-02-23T10:28:00.608Z,7.64
2023-02-23T10:30:50.589Z,7.37
2023-02-23T10:33:42.190Z,7.06
2023-02-23T10:36:41.502Z,6.79
2023-02-23T10:39:31.307Z,6.68
2023-02-23T10:42:28.948Z,6.69
2023-02-23T10:45:24.893Z,6.94
2023-02-23T10:48:24.539Z,7.14
2023-02-23T10:51:28.460Z,7.14
2023-02-23T10:54:37.386Z,7.26
2023-02-23T10:57:39.912Z,7.54
2023-02-23T11:00:33.295Z,7.74
2023-02-23T11:03:34.175Z,8.05
2023-02-23T11:06:39.684Z,8.28
2023-02-23T11:09:44.501Z,8.72
2023-02-23T11:12:43.575Z,9.05
2023-02-23T11:15:49.790Z,9.59
2023-02-23T11:18:49.933Z,10.01
2023-02-23T11:21:40.136Z,10.30
2023-02-23T11:24:35.521Z,10.53
2023-02-23T11:27:27.436Z,10.82
2023-02-23T11:30:15.874Z,10.78
2023-02-23T11:33:12.294Z,10.46
2023-02-23T11:36:16.381Z,10.44
2023-02-23T11:39:23.652Z,10.35
2023-02-23T11:42:21.151Z,9.94
2023-02-23T11:45:20.983Z,9.42
2023-02-23T11:48:32.941Z,9.22
2023-02-23T11:51:31.752Z,9.18
2023-02-23T11:54:48.368Z,9.14
2023-02-23T11:57:36.832Z,9.07
2023-02-23T12:00:27.891Z,8.77
2023-02-23T12:03:24.000Z,8.51
2023-02-23T12:06:12.196Z,8.42
2023-02-23T12:09:23.767Z,8.29
2023-02-23T12:12:18.481Z,8.14
2023-02-23T12:15:36.388Z,8.02
2023-02-23T12:18:33.501Z,7.54
2023-02-23T12:22:00.936Z,7.17
2023-02-23T12:25:04.987Z,6.77
2023-02-23T12:29:02.683Z,6.36
2023-02-23T12:32:05.880Z,5.79
2023-02-23T12:35:11.242Z,5.48
2023-02-23T12:38:19.922Z,5.30
2023-02-23T12:41:16.239Z,5.23
2023-02-23T12:44:38.961Z,5.14
2023-02-23T12:47:37.289Z,5.04
2023-02-23T12:50:51.043Z,4.96
2023-02-23T12:53:45.241Z,4.94
2023-02-23T12:56:50.909Z,4.84
2023-02-23T12:59:53.982Z,4.73
2023-02-23T13:03:10.006Z,4.64
2023-02-23T13:06:30.516Z,4.67
2023-02-23T13:09:53.920Z,4.80
2023-02-23T13:13:31.330Z,4.88
2023-02-23T13:16:40.713Z,4.88
2023-02-23T13:19:52.952Z,4.86
2023-02-23T13:22:54.164Z,4.87
2023-02-23T13:26:24.818Z,4.88
2023-02-23T13:29:34.284Z,4.82
2023-02-23T13:32:29.456Z,4.74
2023-02-23T13:35:23.207Z,4.64
2023-02-23T13:38:34.446Z,4.57
2023-02-23T13:41:41.332Z,4.62
2023-02-23T13:44:44.244Z,4.79
2023-02-23T13:48:06.766Z,4.92
2023-02-23T13:51:05.404Z,4.95
2023-02-23T13:54:06.209Z,4.91
2023-02-23T13:57:01.444Z,4.87
2023-02-23T13:59:50.532Z,4.79
2023-02-23T14:02:41.366Z,4.69
2023-02-23T14:05:30.579Z,4.60
2023-02-23T14:08:38.731Z,4.51
2023-02-23T14:11:49.756Z,4.46
2023-02-23T14:14:42.451Z,4.40
2023-02-23T14:17:36.559Z,4.37
2023-02-23T14:20:38.416Z,4.35
2023-02-23T14:23:34.079Z,4.34
2023-02-23T14:26:28.176Z,4.35
2023-02-23T14:29:17.175Z,4.38
2023-02-23T14:32:11.055Z,4.39
2023-02-23T14:35:02.556Z,4.39
2023-02-23T14:38:01.333Z,4.45
2023-02-23T14:40:49.816Z,4.52
2023-02-23T14:43:42.766Z,4.56
2023-02-23T14:46:32.000Z,4.57
2023-02-23T14:49:22.742Z,4.56
2023-02-23T14:52:20.975Z,4.52
2023-02-23T14:55:11.944Z,4.48
2023-02-23T14:58:01.935Z,4.45
2023-02-23T15:00:52.118Z,4.40
2023-02-23T15:03:40.232Z,4.34
2023-02-23T15:06:28.098Z,4.29
2023-02-23T15:09:44.014Z,4.25
2023-02-23T15:12:38.033Z,4.18
2023-02-23T15:15:27.244Z,4.13
2023-02-23T15:18:24.687Z,4.06
2023-02-23T15:21:19.617Z,4.24
2023-02-23T15:24:13.873Z,5.60
2023-02-23T15:27:02.074Z,6.12
2023-02-23T15:29:50.907Z,5.57
2023-02-23T15:32:41.583Z,5.02
2023-02-23T15:35:32.125Z,4.65
2023-02-23T15:38:45.429Z,4.38
2023-02-23T15:41:36.951Z,4.14
2023-02-23T15:44:38.349Z,4.04
2023-02-23T15:47:37.301Z,5.05
2023-02-23T15:50:37.310Z,5.67
2023-02-23T15:53:55.686Z,5.06
2023-02-23T15:56:47.009Z,4.52
2023-02-23T15:59:37.990Z,4.24
2023-02-23T16:02:26.328Z,4.15
2023-02-23T16:05:25.591Z,5.04
2023-02-23T16:08:24.781Z,6.22
2023-02-23T16:11:19.330Z,5.88
2023-02-23T16:14:16.878Z,5.12
2023-02-23T16:17:11.682Z,4.59
2023-02-23T16:20:41.615Z,4.25
2023-02-23T16:23:40.315Z,5.16
2023-02-23T16:26:54.870Z,6.11
2023-02-23T16:29:42.938Z,5.55
2023-02-23T16:32:41.806Z,4.91
2023-02-23T16:35:38.432Z,4.43
2023-02-23T16:38:38.809Z,4.41
2023-02-23T16:41:33.452Z,5.59
2023-02-23T16:44:24.523Z,5.98
2023-02-23T16:47:23.180Z,5.35
2023-02-23T16:50:20.477Z,4.74
2023-02-23T16:53:11.585Z,4.36
2023-02-23T16:56:12.464Z,4.42
2023-02-23T16:59:03.897Z,5.67
2023-02-23T17:01:52.081Z,6.69
2023-02-23T17:04:40.012Z,6.91
2023-02-23T17:07:27.813Z,6.01
2023-02-23T17:10:30.934Z,5.28
2023-02-23T17:13:29.123Z,4.73
2023-02-23T17:16:17.005Z,4.37
2023-02-23T17:19:07.386Z,4.35
2023-02-23T17:21:55.695Z,5.36
2023-02-23T17:24:44.694Z,6.27
2023-02-23T17:27:32.610Z,6.04
2023-02-23T17:30:21.726Z,5.29
2023-02-23T17:33:11.011Z,4.73
2023-02-23T17:36:00.429Z,4.34
2023-02-23T17:38:48.522Z,4.58
2023-02-23T17:41:36.415Z,5.65
2023-02-23T17:44:24.827Z,6.27
2023-02-23T17:47:12.983Z,5.68
2023-02-23T17:50:02.083Z,4.98
2023-02-23T17:52:51.524Z,4.56
2023-02-23T17:55:39.467Z,4.98
2023-02-23T17:58:28.094Z,5.91
2023-02-23T18:01:18.112Z,5.93
2023-02-23T18:04:06.875Z,5.22
2023-02-23T18:06:56.766Z,4.76
2023-02-23T18:09:45.019Z,5.36
2023-02-23T18:12:33.026Z,6.21
2023-02-23T18:15:23.331Z,6.33
2023-02-23T18:18:11.213Z,5.54
2023-02-23T18:21:00.702Z,4.97
2023-02-23T18:23:51.614Z,5.35
2023-02-23T18:26:40.658Z,6.17
2023-02-23T18:29:35.926Z,6.28
2023-02-23T18:32:23.703Z,5.53
2023-02-23T18:35:12.292Z,5.07
2023-02-23T18:38:01.516Z,5.66
2023-02-23T18:40:49.676Z,6.47
2023-02-23T18:43:37.911Z,6.39
2023-02-23T18:46:27.823Z,5.58
2023-02-23T18:49:22.357Z,5.11
2023-02-23T18:52:10.796Z,5.86
2023-02-23T18:54:59.592Z,6.74
2023-02-23T18:57:47.398Z,6.37
2023-02-23T19:00:40.276Z,5.60
2023-02-23T19:03:28.858Z,5.34
2023-02-23T19:06:18.464Z,6.22
2023-02-23T19:09:12.340Z,6.79
2023-02-23T19:12:01.452Z,6.18
2023-02-23T19:14:51.516Z,5.53
2023-02-23T19:17:39.606Z,6.02
2023-02-23T19:20:32.620Z,6.99
2023-02-23T19:23:20.710Z,7.60
2023-02-23T19:26:08.905Z,6.85
2023-02-23T19:28:58.432Z,6.03
2023-02-23T19:31:46.656Z,5.67
2023-02-23T19:34:35.087Z,6.39
2023-02-23T19:37:23.394Z,7.19
2023-02-23T19:40:19.494Z,7.04
2023-02-23T19:43:07.829Z,6.18
2023-02-23T19:45:56.255Z,5.91
2023-02-23T19:48:48.750Z,6.70
2023-02-23T19:51:36.919Z,7.35
2023-02-23T19:54:26.182Z,7.06
2023-02-23T19:57:14.090Z,6.30
2023-02-23T20:00:03.944Z,5.87
2023-02-23T20:02:56.807Z,6.61
2023-02-23T20:05:45.108Z,7.44
2023-02-23T20:08:34.142Z,7.91
2023-02-23T20:11:23.409Z,7.23
2023-02-23T20:14:12.641Z,6.42
2023-02-23T20:17:01.427Z,6.14
2023-02-23T20:19:49.954Z,6.88
2023-02-23T20:22:41.636Z,7.50
2023-02-23T20:25:29.790Z,7.85
2023-02-23T20:28:18.155Z,7.14
2023-02-23T20:31:17.206Z,6.36
2023-02-23T20:34:10.014Z,6.56
2023-02-23T20:36:57.773Z,7.39
2023-02-23T20:39:46.253Z,7.87
2023-02-23T20:42:34.223Z,7.40
2023-02-23T20:45:25.877Z,6.59
2023-02-23T20:48:13.679Z,6.35
2023-02-23T20:51:02.370Z,7.04
2023-02-23T20:53:49.983Z,7.71
2023-02-23T20:56:40.168Z,8.00
2023-02-23T20:59:31.285Z,7.30
2023-02-23T21:02:19.293Z,6.52
2023-02-23T21:05:12.404Z,6.30
2023-02-23T21:08:08.053Z,7.05
2023-02-23T21:10:56.402Z,7.64
2023-02-23T21:13:45.275Z,8.02
2023-02-23T21:16:33.531Z,7.94
2023-02-23T21:19:24.143Z,7.07
2023-02-23T21:22:16.370Z,6.63
2023-02-23T21:25:05.529Z,7.30
2023-02-23T21:27:54.892Z,8.01
2023-02-23T21:30:42.916Z,8.05
2023-02-23T21:33:31.553Z,7.14
2023-02-23T21:36:19.809Z,6.68
2023-02-23T21:39:08.133Z,7.30
2023-02-23T21:41:57.228Z,7.91
2023-02-23T21:44:45.854Z,8.18
2023-02-23T21:47:39.519Z,7.55
2023-02-23T21:50:27.509Z,6.73
2023-02-23T21:53:15.518Z,6.93
2023-02-23T21:56:22.509Z,7.73
2023-02-23T21:59:10.937Z,8.50
2023-02-23T22:01:58.986Z,8.72
2023-02-23T22:04:49.645Z,7.78
2023-02-23T22:07:37.824Z,6.90
2023-02-23T22:10:26.323Z,6.96
2023-02-23T22:13:14.150Z,7.87
2023-02-23T22:16:03.308Z,8.68
2023-02-23T22:18:51.395Z,9.01
2023-02-23T22:21:43.087Z,8.19
2023-02-23T22:24:31.201Z,7.23
2023-02-23T22:27:19.124Z,6.89
2023-02-23T22:30:09.600Z,7.71
2023-02-23T22:32:57.988Z,8.58
2023-02-23T22:35:46.844Z,9.19
2023-02-23T22:38:35.385Z,9.63
2023-02-23T22:41:23.780Z,9.58
2023-02-23T22:44:22.793Z,8.52
2023-02-23T22:47:10.768Z,7.50
2023-02-23T22:49:59.832Z,7.16
2023-02-23T22:52:47.867Z,7.98
2023-02-23T22:55:35.967Z,8.80
2023-02-23T22:58:29.145Z,9.07
2023-02-23T23:01:19.218Z,8.21
2023-02-23T23:04:10.903Z,7.35
2023-02-23T23:06:59.082Z,6.92
2023-02-23T23:09:47.134Z,7.74
2023-02-23T23:12:37.074Z,8.55
2023-02-23T23:15:24.942Z,9.02
2023-02-23T23:18:20.790Z,9.33
2023-02-23T23:21:14.951Z,8.78
2023-02-23T23:24:06.058Z,7.64
2023-02-23T23:26:55.657Z,7.39
2023-02-23T23:29:46.745Z,8.14
2023-02-23T23:32:35.319Z,8.69
2023-02-23T23:35:26.104Z,9.11
2023-02-23T23:38:14.539Z,9.18
2023-02-23T23:41:13.884Z,8.11
2023-02-23T23:44:05.078Z,7.52
2023-02-23T23:46:53.291Z,8.18
2023-02-23T23:49:42.416Z,8.83
2023-02-23T23:52:31.727Z,9.29
2023-02-23T23:55:19.689Z,9.68
2023-02-23T23:58:07.705Z,9.85
